createdAt,value
2018-02-11T00:01:22.477Z,25.80
2018-02-11T00:03:48.555Z,25.12
2018-02-11T00:06:14.654Z,23.08
2018-02-11T00:08:41.485Z,24.70
2018-02-11T00:11:08.013Z,24.25
2018-02-11T00:13:34.090Z,23.12
2018-02-11T00:16:00.185Z,25.67
2018-02-11T00:18:27.025Z,24.25
2018-02-11T00:20:53.692Z,27.13
2018-02-11T00:23:19.765Z,26.62
2018-02-11T00:25:45.846Z,26.17
2018-02-11T00:28:11.947Z,25.27
2018-02-11T00:30:38.029Z,25.50
2018-02-11T00:33:04.127Z,25.20
2018-02-11T00:35:30.226Z,28.05
2018-02-11T00:38:03.081Z,27.63
2018-02-11T00:40:29.153Z,27.80
2018-02-11T00:42:55.305Z,29.17
2018-02-11T00:45:21.381Z,25.60
2018-02-11T00:47:48.219Z,26.10
2018-02-11T00:50:15.046Z,24.75
2018-02-11T00:52:41.137Z,25.77
2018-02-11T00:55:07.220Z,28.02
2018-02-11T00:57:33.545Z,26.62
2018-02-11T01:00:00.382Z,24.87
2018-02-11T01:02:26.462Z,25.67
2018-02-11T01:04:52.541Z,29.10
2018-02-11T01:07:19.377Z,26.40
2018-02-11T01:09:45.481Z,27.30
2018-02-11T01:12:11.553Z,27.85
2018-02-11T01:14:37.643Z,28.77
2018-02-11T01:17:03.742Z,26.55
2018-02-11T01:19:29.838Z,25.83
2018-02-11T01:21:55.929Z,27.23
2018-02-11T01:24:22.045Z,23.02
2018-02-11T01:26:48.127Z,26.30
2018-02-11T01:29:14.210Z,26.15
2018-02-11T01:31:40.337Z,24.05
2018-02-11T01:34:06.430Z,25.00
2018-02-11T01:36:32.506Z,25.70
2018-02-11T01:38:58.594Z,25.60
2018-02-11T01:41:25.413Z,24.83
2018-02-11T01:43:51.516Z,28.12
2018-02-11T01:46:18.152Z,26.42
2018-02-11T01:48:44.230Z,24.80
2018-02-11T01:51:10.313Z,25.65
2018-02-11T01:53:36.381Z,26.48
2018-02-11T01:56:02.713Z,26.08
2018-02-11T01:58:28.773Z,23.20
2018-02-11T02:00:54.897Z,28.95
2018-02-11T02:03:20.977Z,24.63
2018-02-11T02:05:47.063Z,25.27
2018-02-11T02:08:13.786Z,24.95
2018-02-11T02:10:39.870Z,26.15
2018-02-11T02:13:07.452Z,24.35
2018-02-11T02:15:33.538Z,24.58
2018-02-11T02:17:59.617Z,26.35
2018-02-11T02:20:25.709Z,23.17
2018-02-11T02:22:51.805Z,24.48
2018-02-11T02:25:18.286Z,24.27
2018-02-11T02:27:44.356Z,22.87
2018-02-11T02:30:10.467Z,24.42
2018-02-11T02:32:36.566Z,23.83
2018-02-11T02:35:03.394Z,24.30
2018-02-11T02:37:29.483Z,23.10
2018-02-11T02:39:55.567Z,26.27
2018-02-11T02:42:21.638Z,24.35
2018-02-11T02:44:47.726Z,24.17
2018-02-11T02:47:13.810Z,23.50
2018-02-11T02:49:39.896Z,24.48
2018-02-11T02:52:05.990Z,23.20
2018-02-11T02:54:32.311Z,23.35
2018-02-11T02:56:58.401Z,23.70
2018-02-11T02:59:24.493Z,21.73
2018-02-11T03:01:50.581Z,26.65
2018-02-11T03:04:16.721Z,24.05
2018-02-11T03:06:42.833Z,23.45
2018-02-11T03:09:09.651Z,24.52
2018-02-11T03:11:35.720Z,22.27
2018-02-11T03:14:01.805Z,22.73
2018-02-11T03:16:27.874Z,21.45
2018-02-11T03:18:53.958Z,20.50
2018-02-11T03:21:20.513Z,21.65
2018-02-11T03:23:46.601Z,21.20
2018-02-11T03:26:12.689Z,22.45
2018-02-11T03:28:38.757Z,19.62
2018-02-11T03:31:04.894Z,20.92
2018-02-11T03:33:30.978Z,17.65
2018-02-11T03:35:57.074Z,19.85
2018-02-11T03:38:23.171Z,19.02
2018-02-11T03:40:49.254Z,18.67
2018-02-11T03:43:15.337Z,19.25
2018-02-11T03:45:41.427Z,18.25
2018-02-11T03:48:07.501Z,18.50
2018-02-11T03:50:34.330Z,18.80
2018-02-11T03:53:00.401Z,18.45
2018-02-11T03:55:26.793Z,18.37
2018-02-11T03:57:53.600Z,17.73
2018-02-11T04:00:20.117Z,18.90
2018-02-11T04:02:46.189Z,17.30
2018-02-11T04:05:12.266Z,17.23
2018-02-11T04:07:38.346Z,17.65
2018-02-11T04:10:04.421Z,17.35
2018-02-11T04:12:30.500Z,17.00
2018-02-11T04:14:57.308Z,17.62
2018-02-11T04:17:23.387Z,16.60
2018-02-11T04:19:49.470Z,17.52
2018-02-11T04:22:15.558Z,16.65
2018-02-11T04:24:41.644Z,17.70
2018-02-11T04:27:08.537Z,16.30
2018-02-11T04:29:34.610Z,16.83
2018-02-11T04:32:00.679Z,15.95
2018-02-11T04:34:27.022Z,14.65
2018-02-11T04:36:53.106Z,14.63
2018-02-11T04:39:19.185Z,15.60
2018-02-11T04:41:45.279Z,14.70
2018-02-11T04:44:11.363Z,15.02
2018-02-11T04:46:38.186Z,14.07
2018-02-11T04:49:04.258Z,14.75
2018-02-11T04:51:30.337Z,15.23
2018-02-11T04:53:56.998Z,14.57
2018-02-11T04:56:23.081Z,14.38
2018-02-11T04:58:49.207Z,13.32
2018-02-11T05:01:15.309Z,13.80
2018-02-11T05:03:41.393Z,13.85
2018-02-11T05:06:07.473Z,15.07
2018-02-11T05:08:33.550Z,14.23
2018-02-11T05:11:00.447Z,13.82
2018-02-11T05:13:26.585Z,12.85
2018-02-11T05:15:52.661Z,14.52
2018-02-11T05:18:18.749Z,12.68
2018-02-11T05:20:44.825Z,12.77
2018-02-11T05:23:10.921Z,12.55
2018-02-11T05:25:37.007Z,12.63
2018-02-11T05:28:03.094Z,15.00
2018-02-11T05:30:29.182Z,12.65
2018-02-11T05:32:56.019Z,13.05
2018-02-11T05:35:22.106Z,13.15
2018-02-11T05:37:48.177Z,12.95
2018-02-11T05:40:15.005Z,11.95
2018-02-11T05:42:41.081Z,13.38
2018-02-11T05:45:07.165Z,13.27
2018-02-11T05:47:33.252Z,13.00
2018-02-11T05:49:59.325Z,12.10
2018-02-11T05:52:26.153Z,13.68
2018-02-11T05:54:52.229Z,13.52
2018-02-11T05:57:18.313Z,11.77
2018-02-11T05:59:45.149Z,12.00
2018-02-11T06:02:11.237Z,12.37
2018-02-11T06:04:37.314Z,11.75
2018-02-11T06:07:03.397Z,13.40
2018-02-11T06:09:29.470Z,10.95
2018-02-11T06:11:56.281Z,10.77
2018-02-11T06:14:22.380Z,10.85
2018-02-11T06:16:48.863Z,11.12
2018-02-11T06:19:14.939Z,12.10
2018-02-11T06:21:41.018Z,10.90
2018-02-11T06:24:07.846Z,11.80
2018-02-11T06:26:43.913Z,11.05
2018-02-11T06:29:10.737Z,10.85
2018-02-11T06:31:36.813Z,11.10
2018-02-11T06:34:02.877Z,10.90
2018-02-11T06:36:28.970Z,10.85
2018-02-11T06:38:55.109Z,10.32
2018-02-11T06:41:21.202Z,9.75
2018-02-11T06:43:47.293Z,10.35
2018-02-11T06:46:13.373Z,10.38
2018-02-11T06:48:39.444Z,11.55
2018-02-11T06:51:06.257Z,10.40
2018-02-11T06:53:32.337Z,11.75
2018-02-11T06:55:58.417Z,11.20
2018-02-11T06:58:24.498Z,10.43
2018-02-11T07:00:50.585Z,9.93
2018-02-11T07:03:16.669Z,11.12
2018-02-11T07:05:42.737Z,9.82
2018-02-11T07:08:08.848Z,10.93
2018-02-11T07:10:34.969Z,10.85
2018-02-11T07:13:01.046Z,11.07
2018-02-11T07:15:27.146Z,11.68
2018-02-11T07:17:53.962Z,10.75
2018-02-11T07:20:20.061Z,11.23
2018-02-11T07:22:46.149Z,10.73
2018-02-11T07:25:12.235Z,10.48
2018-02-11T07:27:38.329Z,10.38
2018-02-11T07:30:04.405Z,11.18
2018-02-11T07:32:30.570Z,10.52
2018-02-11T07:34:56.696Z,10.38
2018-02-11T07:37:22.862Z,9.75
2018-02-11T07:39:48.950Z,9.57
2018-02-11T07:42:15.014Z,10.30
2018-02-11T07:44:41.095Z,9.43
2018-02-11T07:47:07.180Z,9.63
2018-02-11T07:49:33.254Z,9.95
2018-02-11T07:51:59.325Z,8.43
2018-02-11T07:54:25.806Z,9.30
2018-02-11T07:56:51.911Z,8.80
2018-02-11T07:59:18.750Z,7.78
2018-02-11T08:01:45.573Z,8.65
2018-02-11T08:04:11.646Z,8.85
2018-02-11T08:06:37.812Z,8.98
2018-02-11T08:09:03.889Z,7.97
2018-02-11T08:11:29.966Z,8.05
2018-02-11T08:13:56.054Z,8.10
2018-02-11T08:16:22.169Z,7.32
2018-02-11T08:18:48.243Z,7.20
2018-02-11T08:21:14.335Z,6.07
2018-02-11T08:23:40.437Z,6.10
2018-02-11T08:26:06.511Z,6.00
2018-02-11T08:28:32.601Z,6.53
2018-02-11T08:30:58.680Z,5.72
2018-02-11T08:33:24.758Z,5.50
2018-02-11T08:35:50.821Z,6.40
2018-02-11T08:38:16.913Z,5.78
2018-02-11T08:40:42.983Z,5.65
2018-02-11T08:43:09.066Z,5.57
2018-02-11T08:45:35.159Z,5.68
2018-02-11T08:48:01.262Z,5.50
2018-02-11T08:50:27.652Z,6.05
2018-02-11T08:52:53.778Z,5.55
2018-02-11T08:55:19.925Z,5.18
2018-02-11T08:57:46.058Z,5.62
2018-02-11T09:00:12.138Z,5.32
2018-02-11T09:02:38.221Z,4.95
2018-02-11T09:05:04.309Z,5.03
2018-02-11T09:07:30.445Z,4.87
2018-02-11T09:09:56.621Z,4.65
2018-02-11T09:12:23.438Z,5.17
2018-02-11T09:14:49.509Z,4.55
2018-02-11T09:17:15.963Z,4.80
2018-02-11T09:19:42.040Z,4.90
2018-02-11T09:22:08.138Z,4.12
2018-02-11T09:24:34.214Z,4.83
2018-02-11T09:27:00.348Z,4.33
2018-02-11T09:29:26.433Z,4.80
2018-02-11T09:31:52.511Z,4.00
2018-02-11T09:34:18.586Z,4.53
2018-02-11T09:36:44.673Z,3.80
2018-02-11T09:39:10.741Z,4.43
2018-02-11T09:41:36.813Z,4.20
2018-02-11T09:44:02.881Z,4.20
2018-02-11T09:46:28.954Z,4.40
2018-02-11T09:48:55.037Z,3.43
2018-02-11T09:51:21.861Z,4.68
2018-02-11T09:53:47.966Z,4.07
2018-02-11T09:56:14.537Z,3.63
2018-02-11T09:58:40.703Z,4.15
2018-02-11T10:01:07.478Z,4.25
2018-02-11T10:03:33.563Z,5.23
2018-02-11T10:05:59.629Z,4.80
2018-02-11T10:08:25.701Z,3.95
2018-02-11T10:10:52.285Z,4.28
2018-02-11T10:13:18.802Z,4.43
2018-02-11T10:15:46.653Z,3.73
2018-02-11T10:18:14.975Z,4.50
2018-02-11T10:20:41.034Z,3.73
2018-02-11T10:23:08.756Z,4.23
2018-02-11T10:25:35.854Z,4.00
2018-02-11T10:28:03.196Z,4.10
2018-02-11T10:30:30.045Z,4.20
2018-02-11T10:32:56.117Z,4.10
2018-02-11T10:35:25.431Z,4.37
2018-02-11T10:37:51.806Z,3.60
2018-02-11T10:40:18.630Z,3.87
2018-02-11T10:42:44.701Z,4.20
2018-02-11T10:45:10.773Z,3.73
2018-02-11T10:47:36.852Z,3.40
2018-02-11T10:50:02.994Z,3.83
2018-02-11T10:52:29.069Z,4.40
2018-02-11T10:54:55.173Z,4.00
2018-02-11T10:57:21.258Z,3.77
2018-02-11T10:59:47.330Z,4.17
2018-02-11T11:02:13.414Z,4.30
2018-02-11T11:04:40.393Z,3.77
2018-02-11T11:07:06.506Z,3.57
2018-02-11T11:09:32.588Z,3.70
2018-02-11T11:11:58.673Z,3.80
2018-02-11T11:14:24.770Z,4.40
2018-02-11T11:16:50.852Z,4.10
2018-02-11T11:19:16.921Z,3.60
2018-02-11T11:21:43.115Z,4.27
2018-02-11T11:24:09.186Z,4.40
2018-02-11T11:26:35.277Z,3.90
2018-02-11T11:29:04.545Z,3.00
2018-02-11T11:31:30.660Z,3.57
2018-02-11T11:33:56.777Z,4.10
2018-02-11T11:36:23.625Z,4.13
2018-02-11T11:38:49.690Z,3.73
2018-02-11T11:41:15.768Z,3.80
2018-02-11T11:43:41.879Z,3.60
2018-02-11T11:46:07.946Z,3.67
2018-02-11T11:48:34.778Z,3.63
2018-02-11T11:51:01.626Z,3.87
2018-02-11T11:53:27.673Z,3.73
2018-02-11T11:55:53.737Z,3.47
2018-02-11T11:58:19.809Z,4.07
2018-02-11T12:00:45.901Z,4.40
2018-02-11T12:03:11.969Z,3.47
2018-02-11T12:05:38.065Z,4.10
2018-02-11T12:08:04.893Z,4.07
2018-02-11T12:10:30.960Z,4.00
2018-02-11T12:12:57.039Z,4.33
2018-02-11T12:15:23.139Z,3.73
2018-02-11T12:17:49.258Z,4.13
2018-02-11T12:20:15.376Z,3.30
2018-02-11T12:22:41.461Z,3.27
2018-02-11T12:25:08.290Z,4.10
2018-02-11T12:27:34.355Z,4.07
2018-02-11T12:30:00.478Z,4.00
2018-02-11T12:32:26.554Z,4.30
2018-02-11T12:34:52.701Z,4.30
2018-02-11T12:37:19.545Z,3.90
2018-02-11T12:39:45.657Z,4.30
2018-02-11T12:42:11.742Z,4.00
2018-02-11T12:44:37.822Z,4.30
2018-02-11T12:47:03.933Z,4.27
2018-02-11T12:49:30.011Z,4.40
2018-02-11T12:51:56.077Z,4.17
2018-02-11T12:54:22.898Z,4.40
2018-02-11T12:56:48.962Z,3.60
2018-02-11T12:59:15.773Z,3.67
2018-02-11T13:01:41.869Z,4.20
2018-02-11T13:04:07.937Z,4.13
2018-02-11T13:06:34.022Z,4.30
2018-02-11T13:09:00.097Z,5.17
2018-02-11T13:11:26.189Z,4.20
2018-02-11T13:13:52.292Z,4.60
2018-02-11T13:16:18.386Z,4.10
2018-02-11T13:18:45.222Z,3.77
2018-02-11T13:21:12.062Z,3.97
2018-02-11T13:23:38.133Z,4.07
2018-02-11T13:26:04.207Z,4.57
2018-02-11T13:28:30.277Z,3.83
2018-02-11T13:30:56.393Z,4.40
2018-02-11T13:33:22.453Z,4.80
2018-02-11T13:35:48.522Z,4.20
2018-02-11T13:38:14.590Z,4.43
2018-02-11T13:40:40.679Z,3.80
2018-02-11T13:43:06.782Z,4.10
2018-02-11T13:45:32.853Z,4.17
2018-02-11T13:47:58.943Z,4.40
2018-02-11T13:50:25.041Z,4.00
2018-02-11T13:52:51.134Z,4.67
2018-02-11T13:55:17.206Z,4.43
2018-02-11T13:57:43.346Z,4.50
2018-02-11T14:00:10.160Z,5.10
2018-02-11T14:02:36.471Z,4.80
2018-02-11T14:05:02.599Z,4.17
2018-02-11T14:07:28.671Z,4.07
2018-02-11T14:09:55.496Z,4.13
2018-02-11T14:12:21.566Z,4.33
2018-02-11T14:14:47.644Z,5.03
2018-02-11T14:17:13.745Z,4.53
2018-02-11T14:19:40.213Z,4.33
2018-02-11T14:22:06.274Z,4.13
2018-02-11T14:24:32.365Z,4.70
2018-02-11T14:26:59.182Z,3.70
2018-02-11T14:29:25.279Z,4.90
2018-02-11T14:31:51.415Z,3.37
2018-02-11T14:34:17.486Z,3.93
2018-02-11T14:36:43.726Z,3.67
2018-02-11T14:39:10.542Z,4.33
2018-02-11T14:41:36.616Z,3.50
2018-02-11T14:44:02.698Z,3.50
2018-02-11T14:46:28.825Z,3.33
2018-02-11T14:48:54.930Z,4.03
2018-02-11T14:51:20.997Z,4.20
2018-02-11T14:53:47.076Z,4.40
2018-02-11T14:56:13.149Z,4.83
2018-02-11T14:58:39.226Z,5.10
2018-02-11T15:01:05.323Z,4.67
2018-02-11T15:03:31.402Z,5.07
2018-02-11T15:05:57.475Z,4.97
2018-02-11T15:08:23.533Z,4.63
2018-02-11T15:10:49.606Z,4.17
2018-02-11T15:13:15.701Z,4.43
2018-02-11T15:15:42.505Z,4.20
2018-02-11T15:18:08.575Z,3.73
2018-02-11T15:20:35.385Z,5.10
2018-02-11T15:23:01.469Z,4.03
2018-02-11T15:25:27.534Z,4.50
2018-02-11T15:27:53.650Z,5.00
2018-02-11T15:30:19.745Z,4.40
2018-02-11T15:32:45.937Z,4.60
2018-02-11T15:35:12.086Z,3.13
2018-02-11T15:37:38.331Z,4.10
2018-02-11T15:40:04.398Z,5.00
2018-02-11T15:42:30.530Z,4.20
2018-02-11T15:44:57.518Z,4.30
2018-02-11T15:47:23.589Z,4.10
2018-02-11T15:49:49.670Z,3.53
2018-02-11T15:52:16.083Z,3.87
2018-02-11T15:54:42.959Z,4.07
2018-02-11T15:57:09.050Z,3.80
2018-02-11T15:59:35.865Z,3.70
2018-02-11T16:02:01.950Z,2.73
2018-02-11T16:04:28.020Z,3.20
2018-02-11T16:06:54.105Z,4.70
2018-02-11T16:09:20.177Z,3.00
2018-02-11T16:11:47.726Z,3.77
2018-02-11T16:14:13.797Z,3.90
2018-02-11T16:16:39.873Z,3.50
2018-02-11T16:19:05.961Z,2.93
2018-02-11T16:21:32.045Z,3.00
2018-02-11T16:23:58.145Z,2.87
2018-02-11T16:26:24.210Z,2.80
2018-02-11T16:28:50.319Z,2.20
2018-02-11T16:31:16.392Z,2.53
2018-02-11T16:33:42.689Z,3.30
2018-02-11T16:36:08.764Z,2.57
2018-02-11T16:38:34.833Z,2.10
2018-02-11T16:41:01.678Z,2.50
2018-02-11T16:43:28.306Z,2.70
2018-02-11T16:45:54.381Z,2.30
2018-02-11T16:48:20.481Z,3.43
2018-02-11T16:50:46.553Z,1.97
2018-02-11T16:53:12.625Z,2.03
2018-02-11T16:55:39.448Z,2.60
2018-02-11T16:58:05.519Z,2.07
2018-02-11T17:00:31.586Z,2.43
2018-02-11T17:02:57.675Z,1.40
2018-02-11T17:05:23.758Z,3.77
2018-02-11T17:07:51.007Z,2.30
2018-02-11T17:10:17.830Z,2.50
2018-02-11T17:12:43.893Z,3.57
2018-02-11T17:15:09.966Z,3.20
2018-02-11T17:17:36.051Z,2.13
2018-02-11T17:20:02.141Z,3.57
2018-02-11T17:22:28.967Z,2.43
2018-02-11T17:24:55.043Z,2.27
2018-02-11T17:27:21.123Z,2.60
2018-02-11T17:29:47.841Z,2.67
2018-02-11T17:32:13.913Z,2.37
2018-02-11T17:34:40.732Z,2.33
2018-02-11T17:37:06.817Z,2.90
2018-02-11T17:39:32.915Z,3.70
2018-02-11T17:41:59.012Z,2.37
2018-02-11T17:44:25.105Z,2.40
2018-02-11T17:46:51.177Z,2.80
2018-02-11T17:49:18.006Z,1.97
2018-02-11T17:51:44.090Z,2.40
2018-02-11T17:54:10.161Z,2.10
2018-02-11T17:56:36.253Z,3.57
2018-02-11T17:59:02.405Z,2.47
2018-02-11T18:01:28.485Z,3.03
2018-02-11T18:03:54.557Z,1.87
2018-02-11T18:06:20.633Z,2.83
2018-02-11T18:08:46.730Z,2.10
2018-02-11T18:11:12.800Z,2.80
2018-02-11T18:13:38.878Z,1.90
2018-02-11T18:16:05.710Z,2.87
2018-02-11T18:18:32.536Z,2.10
2018-02-11T18:21:05.485Z,2.20
2018-02-11T18:23:31.553Z,2.10
2018-02-11T18:25:57.949Z,3.40
2018-02-11T18:28:24.041Z,2.67
2018-02-11T18:30:50.124Z,3.27
2018-02-11T18:33:16.208Z,1.90
2018-02-11T18:35:42.297Z,2.13
2018-02-11T18:38:08.365Z,1.50
2018-02-11T18:40:34.435Z,2.37
2018-02-11T18:43:00.509Z,2.47
2018-02-11T18:45:26.587Z,2.63
2018-02-11T18:47:53.433Z,2.50
2018-02-11T18:50:19.518Z,2.10
2018-02-11T18:52:45.594Z,2.60
2018-02-11T18:55:12.873Z,1.80
2018-02-11T18:57:39.169Z,2.20
2018-02-11T19:00:05.625Z,2.23
2018-02-11T19:02:31.709Z,2.83
2018-02-11T19:04:57.789Z,2.60
2018-02-11T19:07:23.873Z,2.40
2018-02-11T19:09:50.249Z,3.57
2018-02-11T19:12:16.378Z,2.50
2018-02-11T19:14:42.453Z,3.07
2018-02-11T19:17:08.560Z,2.50
2018-02-11T19:19:34.666Z,2.80
2018-02-11T19:22:00.763Z,3.03
2018-02-11T19:24:26.849Z,2.47
2018-02-11T19:26:53.410Z,2.93
2018-02-11T19:29:19.516Z,2.73
2018-02-11T19:31:45.618Z,2.90
2018-02-11T19:34:11.693Z,2.53
2018-02-11T19:36:38.579Z,2.97
2018-02-11T19:39:04.742Z,3.40
2018-02-11T19:41:30.822Z,2.43
2018-02-11T19:43:56.933Z,3.33
2018-02-11T19:46:23.006Z,4.10
2018-02-11T19:48:49.093Z,2.87
2018-02-11T19:51:15.852Z,3.30
2018-02-11T19:53:41.927Z,2.80
2018-02-11T19:56:08.225Z,3.30
2018-02-11T19:58:34.324Z,2.40
2018-02-11T20:01:00.605Z,2.40
2018-02-11T20:03:27.456Z,2.90
2018-02-11T20:05:53.545Z,3.87
2018-02-11T20:08:19.626Z,3.03
2018-02-11T20:10:45.704Z,2.80
2018-02-11T20:13:11.797Z,4.90
2018-02-11T20:15:38.115Z,5.33
2018-02-11T20:18:04.204Z,4.00
2018-02-11T20:20:31.345Z,4.90
2018-02-11T20:22:58.187Z,7.20
2018-02-11T20:25:24.281Z,5.15
2018-02-11T20:27:50.375Z,4.18
2018-02-11T20:30:18.261Z,4.80
2018-02-11T20:32:44.369Z,6.60
2018-02-11T20:35:15.189Z,6.90
2018-02-11T20:37:41.753Z,6.70
2018-02-11T20:40:07.831Z,8.00
2018-02-11T20:42:36.132Z,4.40
2018-02-11T20:45:02.285Z,4.35
2018-02-11T20:47:28.376Z,5.12
2018-02-11T20:49:55.057Z,4.37
2018-02-11T20:52:21.150Z,5.07
2018-02-11T20:54:47.621Z,7.15
2018-02-11T20:57:13.777Z,5.72
2018-02-11T20:59:40.608Z,5.18
2018-02-11T21:02:06.693Z,4.45
2018-02-11T21:04:32.772Z,4.22
2018-02-11T21:06:58.869Z,3.08
2018-02-11T21:09:24.962Z,4.32
2018-02-11T21:11:51.045Z,4.20
2018-02-11T21:14:17.153Z,5.57
2018-02-11T21:16:43.238Z,3.50
2018-02-11T21:19:09.313Z,3.00
2018-02-11T21:21:35.401Z,4.28
2018-02-11T21:24:01.507Z,5.10
2018-02-11T21:26:27.839Z,6.85
2018-02-11T21:28:53.918Z,4.50
2018-02-11T21:31:20.036Z,4.20
2018-02-11T21:33:46.128Z,4.05
2018-02-11T21:36:12.230Z,3.35
2018-02-11T21:38:38.310Z,3.17
2018-02-11T21:41:04.397Z,3.60
2018-02-11T21:43:30.542Z,2.65
2018-02-11T21:45:56.634Z,4.87
2018-02-11T21:48:22.737Z,4.45
2018-02-11T21:50:48.825Z,3.70
2018-02-11T21:53:14.973Z,2.20
2018-02-11T21:55:41.089Z,3.20
2018-02-11T21:58:07.166Z,3.25
2018-02-11T22:00:33.262Z,1.95
2018-02-11T22:02:59.384Z,2.83
2018-02-11T22:05:25.473Z,3.67
2018-02-11T22:07:51.561Z,4.35
2018-02-11T22:10:17.641Z,5.10
2018-02-11T22:12:50.773Z,3.17
2018-02-11T22:15:16.858Z,2.90
2018-02-11T22:17:42.989Z,3.67
2018-02-11T22:20:09.091Z,3.37
2018-02-11T22:22:35.229Z,3.12
2018-02-11T22:25:01.726Z,2.55
2018-02-11T22:27:27.842Z,2.95
2018-02-11T22:29:53.942Z,3.53
2018-02-11T22:32:20.049Z,3.33
2018-02-11T22:34:46.139Z,2.45
2018-02-11T22:37:12.218Z,3.53
2018-02-11T22:39:38.313Z,4.18
2018-02-11T22:42:04.409Z,2.80
2018-02-11T22:44:30.506Z,3.70
2018-02-11T22:46:57.323Z,3.25
2018-02-11T22:49:23.393Z,2.10
2018-02-11T22:51:49.489Z,2.75
2018-02-11T22:54:15.929Z,3.08
2018-02-11T22:56:42.749Z,2.53
2018-02-11T22:59:08.829Z,3.45
2018-02-11T23:01:34.915Z,2.47
2018-02-11T23:04:01.001Z,2.75
2018-02-11T23:06:27.093Z,3.20
2018-02-11T23:08:53.165Z,2.75
2018-02-11T23:11:19.345Z,3.47
2018-02-11T23:13:45.418Z,2.30
2018-02-11T23:16:11.502Z,2.62
2018-02-11T23:18:37.570Z,2.75
2018-02-11T23:21:03.645Z,2.85
2018-02-11T23:23:29.737Z,3.78
2018-02-11T23:25:55.816Z,3.22
2018-02-11T23:28:21.901Z,2.85
2018-02-11T23:30:48.725Z,3.30
2018-02-11T23:33:15.538Z,3.30
2018-02-11T23:35:41.632Z,3.35
2018-02-11T23:38:07.709Z,3.00
2018-02-11T23:40:33.777Z,4.40
2018-02-11T23:42:59.881Z,3.60
2018-02-11T23:45:26.719Z,2.83
2018-02-11T23:47:52.796Z,3.78
2018-02-11T23:50:18.885Z,3.10
2018-02-11T23:52:44.949Z,2.80
2018-02-11T23:55:11.038Z,2.33
2018-02-11T23:57:38.265Z,4.05
